Time;durP1;ratioP1;P1;durP2;ratioP2;P2;SDS_P1;SDS_P2;PMS_P1;PMS_P2;Temp;Humidity;BMP_temperature;BMP_pressure;BME280_temperature;BME280_humidity;BME280_pressure;Samples;Min_cycle;Max_cycle;Signal;HPM_P1;HPM_P2
2023/07/06 00:01:23;;;;;;;16.23;6.47;;;18.40;99.90;;;18.90;84.98;101360.34;5053030;28;20045;-71
2023/07/06 00:03:54;;;;;;;11.60;5.22;;;18.50;99.90;;;18.92;85.02;101361.19;5052691;28;20049;-71
2023/07/06 00:06:24;;;;;;;15.18;6.35;;;18.50;99.90;;;18.92;85.27;101358.50;5051585;28;20049;-72
2023/07/06 00:08:53;;;;;;;14.43;5.90;;;18.50;99.90;;;18.91;85.53;101354.09;5052892;28;20475;-70
2023/07/06 00:11:22;;;;;;;14.75;5.68;;;18.50;99.90;;;18.93;85.66;101366.50;5052523;28;20049;-71
2023/07/06 00:13:51;;;;;;;10.67;5.67;;;18.50;99.90;;;18.93;85.76;101366.50;5048562;28;20059;-71
2023/07/06 00:16:21;;;;;;;17.92;5.90;;;18.50;99.90;;;18.93;86.04;101366.50;5048942;28;20764;-71
2023/07/06 00:18:49;;;;;;;15.32;5.63;;;18.50;99.90;;;18.36;86.16;101265.53;5052755;28;20045;-69
2023/07/06 00:21:17;;;;;;;16.85;6.13;;;18.50;99.90;;;18.92;86.66;101367.44;5052810;28;20045;-71
2023/07/06 00:23:47;;;;;;;16.80;6.35;;;18.50;99.90;;;18.93;86.84;101366.50;5051693;28;20517;-71
2023/07/06 00:26:16;;;;;;;19.17;6.05;;;18.50;99.90;;;19.01;86.69;101368.94;5052666;28;20421;-71
2023/07/06 00:28:48;;;;;;;15.45;6.47;;;18.50;99.90;;;19.01;86.60;101376.13;5052652;28;20106;-71
2023/07/06 00:31:31;;;;;;;17.23;6.18;;;18.50;99.90;;;18.93;86.68;101368.28;5052671;28;20049;-71
2023/07/06 00:34:03;;;;;;;20.63;6.95;;;18.50;99.90;;;18.90;86.66;101371.97;5049583;28;20049;-71
2023/07/06 00:36:35;;;;;;;14.75;5.80;;;18.50;99.90;;;18.85;86.57;101368.53;5052327;28;20140;-71
2023/07/06 00:39:04;;;;;;;13.60;6.65;;;18.50;99.90;;;18.87;86.45;101364.00;5052681;28;20052;-71
2023/07/06 00:41:34;;;;;;;14.40;5.70;;;18.50;99.90;;;18.89;86.23;101367.50;5048928;28;20045;-71
2023/07/06 00:44:04;;;;;;;22.48;6.15;;;18.50;99.90;;;18.91;86.26;101371.03;5052823;28;20490;-71
2023/07/06 00:46:40;;;;;;;18.23;6.00;;;18.50;99.90;;;18.87;86.46;101368.50;5052426;28;20057;-71
2023/07/06 00:49:15;;;;;;;16.33;6.30;;;18.40;99.90;;;18.86;86.79;101372.09;5052179;28;20998;-72
2023/07/06 00:51:45;;;;;;;15.50;6.10;;;18.40;99.90;;;18.84;86.65;101365.91;5048838;28;20083;-72
2023/07/06 00:54:18;;;;;;;12.73;5.95;;;18.40;99.90;;;18.82;86.90;101371.31;5052455;28;20048;-71
2023/07/06 00:56:49;;;;;;;23.92;6.70;;;18.40;99.90;;;18.80;86.82;101362.44;5051126;28;20398;-71
2023/07/06 00:59:26;;;;;;;18.08;6.70;;;18.40;99.90;;;18.84;86.74;101358.75;5050462;28;20049;-72
2023/07/06 01:01:55;;;;;;;16.63;6.40;;;18.40;99.90;;;18.85;86.83;101371.22;5064439;28;20037;-71
2023/07/06 01:04:23;;;;;;;16.58;5.60;;;18.40;99.90;;;18.85;86.69;101365.84;5048330;28;20426;-71
2023/07/06 01:06:54;;;;;;;18.13;6.00;;;18.40;99.90;;;18.81;86.66;101368.69;5052431;28;20457;-71
2023/07/06 01:09:26;;;;;;;14.50;6.25;;;18.40;99.90;;;18.82;86.73;101368.63;5048704;28;20064;-71
2023/07/06 01:11:55;;;;;;;15.77;6.18;;;18.40;99.90;;;18.76;86.75;101362.56;5052168;28;20074;-71
2023/07/06 01:14:27;;;;;;;19.50;6.65;;;18.40;99.90;;;18.79;86.87;101358.00;5052268;28;20048;-71
2023/07/06 01:17:05;;;;;;;16.70;6.85;;;18.40;99.90;;;18.80;86.88;101359.75;5050913;28;20048;-71
2023/07/06 01:20:13;;;;;;;15.10;6.45;;;18.40;99.90;;;18.77;86.94;101357.19;5049172;28;20084;-71
2023/07/06 01:23:36;;;;;;;15.85;6.70;;;18.40;99.90;;;18.79;87.14;101365.19;5066744;28;20399;-72
2023/07/06 01:26:16;;;;;;;16.60;7.40;;;18.40;99.90;;;18.76;87.41;101360.78;5051056;28;20084;-71
2023/07/06 01:29:16;;;;;;;17.10;6.35;;;18.30;99.90;;;18.78;87.53;101366.09;5049144;28;20052;-71
2023/07/06 01:31:51;;;;;;;16.48;6.57;;;18.30;99.90;;;18.65;87.75;101351.31;5041337;28;20180;-72
2023/07/06 01:34:29;;;;;;;20.63;6.38;;;18.30;99.90;;;18.79;87.86;101370.53;5070785;28;20048;-70
2023/07/06 01:37:06;;;;;;;13.65;6.38;;;18.30;99.90;;;18.79;87.94;101366.03;5052273;28;20052;-71
2023/07/06 01:39:35;;;;;;;18.55;6.95;;;18.40;99.90;;;18.81;87.92;101380.25;5055526;28;20053;-71
2023/07/06 01:42:30;;;;;;;18.10;6.75;;;18.40;99.90;;;18.83;87.67;101367.69;5055249;28;20497;-71
2023/07/06 01:45:05;;;;;;;18.08;6.70;;;18.40;99.90;;;18.84;87.93;101369.47;5053901;28;20037;-71
2023/07/06 01:47:40;;;;;;;22.52;7.07;;;18.40;99.90;;;18.84;87.82;101365.91;5054118;28;20049;-72
2023/07/06 01:50:12;;;;;;;19.65;7.47;;;18.40;99.90;;;18.83;88.10;101365.00;5068012;28;20118;-71
2023/07/06 01:52:58;;;;;;;18.65;6.95;;;18.40;99.90;;;18.85;87.96;101365.00;5055345;28;20074;-70
2023/07/06 01:55:31;;;;;;;19.70;6.75;;;18.40;99.90;;;18.85;88.22;101365.84;5052038;28;20092;-70
2023/07/06 01:58:11;;;;;;;20.33;7.35;;;18.40;99.90;;;18.85;88.47;101365.00;5053854;28;20049;-72
2023/07/06 02:00:44;;;;;;;15.60;6.60;;;18.40;99.90;;;18.87;88.66;101363.16;5053981;28;20127;-72
2023/07/06 02:03:15;;;;;;;25.58;7.40;;;18.40;99.90;;;18.89;88.79;101361.28;5051632;28;20402;-72
2023/07/06 02:05:43;;;;;;;;;;;18.40;99.90;;;18.86;89.31;101364.06;5054292;28;20084;-72
2023/07/06 02:08:13;;;;;;;20.50;7.47;;;18.50;99.90;;;18.85;89.69;101365.00;5053740;28;20298;-69
2023/07/06 02:10:42;;;;;;;19.10;7.20;;;18.40;99.90;;;18.96;89.64;101367.34;5055161;28;20120;-71
2023/07/06 02:13:11;;;;;;;22.05;7.80;;;18.50;99.90;;;18.92;89.77;101358.50;5055495;28;20064;-71
2023/07/06 02:15:40;;;;;;;21.35;8.10;;;18.50;99.90;;;18.88;89.72;101340.75;5057214;28;20071;-71
2023/07/06 02:18:08;;;;;;;21.48;7.53;;;18.60;99.90;;;19.04;89.82;101362.63;5055276;28;20080;-71
2023/07/06 02:20:38;;;;;;;25.15;8.13;;;18.60;99.90;;;19.00;90.15;101353.78;5051444;28;20516;-71
2023/07/06 02:23:11;;;;;;;19.50;7.63;;;18.60;99.90;;;19.05;90.14;101359.03;5054376;28;20114;-71
2023/07/06 02:25:39;;;;;;;24.63;7.07;;;18.60;99.90;;;19.07;90.29;101341.03;5054683;28;20405;-71
2023/07/06 02:28:10;;;;;;;20.50;7.43;;;18.60;99.90;;;19.08;90.47;101350.88;5062192;28;20394;-71
2023/07/06 02:30:38;;;;;;;19.80;7.28;;;18.60;99.90;;;19.08;90.30;101357.13;5054733;28;20095;-71
2023/07/06 02:33:07;;;;;;;20.25;7.50;;;18.70;99.90;;;19.12;90.34;101355.22;5053186;28;20047;-72
2023/07/06 02:35:36;;;;;;;18.48;7.60;;;18.70;99.90;;;19.10;90.63;101349.91;5053247;28;20052;-72
2023/07/06 02:38:05;;;;;;;20.30;7.20;;;18.60;99.90;;;19.17;90.65;101355.94;5049257;28;20053;-69
2023/07/06 02:40:35;;;;;;;23.92;7.78;;;18.70;99.90;;;19.19;90.50;101354.06;5054445;28;20045;-71
2023/07/06 02:43:03;;;;;;;21.03;8.10;;;18.70;99.90;;;19.21;90.30;101354.91;5054409;28;20075;-70
2023/07/06 02:45:33;;;;;;;20.80;7.67;;;18.80;99.90;;;19.24;90.29;101358.38;5054313;28;20322;-72
2023/07/06 02:48:03;;;;;;;22.55;7.82;;;18.80;99.90;;;19.25;90.18;101353.88;5054307;28;20068;-72
2023/07/06 02:50:34;;;;;;;22.80;7.82;;;18.80;99.90;;;19.25;90.03;101368.19;5053959;28;20449;-73
2023/07/06 02:53:04;;;;;;;18.77;7.25;;;18.80;99.90;;;19.23;90.05;101367.34;5054138;28;20083;-71
2023/07/06 02:55:32;;;;;;;22.45;8.32;;;18.80;99.90;;;19.25;90.27;101369.97;5054144;28;20074;-71
2023/07/06 02:58:02;;;;;;;17.02;7.07;;;18.80;99.90;;;19.31;90.25;101375.16;5049894;28;20371;-71
2023/07/06 03:00:31;;;;;;;17.33;6.88;;;18.80;99.90;;;19.30;90.05;101373.41;5054050;28;20045;-71
2023/07/06 03:02:59;;;;;;;13.75;6.97;;;18.80;99.90;;;19.25;90.08;101373.56;5053922;28;20052;-71
2023/07/06 03:05:28;;;;;;;17.23;7.82;;;18.80;99.90;;;19.25;89.99;101378.03;5053878;28;20455;-70
2023/07/06 03:07:56;;;;;;;19.27;8.15;;;18.80;99.90;;;19.24;90.20;101374.47;5054133;28;20051;-71
2023/07/06 03:10:26;;;;;;;22.17;7.78;;;18.80;99.90;;;19.26;89.94;101366.38;5053752;28;20056;-72
2023/07/06 03:12:55;;;;;;;21.73;7.35;;;18.80;99.90;;;19.29;90.00;101377.00;5053718;28;20057;-71
2023/07/06 03:15:23;;;;;;;20.25;7.72;;;18.80;99.90;;;19.26;90.08;101371.75;5052480;28;20045;-71
2023/07/06 03:17:52;;;;;;;20.25;8.15;;;18.80;99.90;;;19.28;89.93;101369.91;5053727;28;20056;-72
2023/07/06 03:20:22;;;;;;;23.55;8.05;;;18.80;99.90;;;19.28;90.05;101381.47;5049674;28;20041;-72
2023/07/06 03:22:53;;;;;;;;;;;18.80;99.90;;;19.20;90.28;101385.34;5050806;28;20098;-71
2023/07/06 03:25:26;;;;;;;21.45;7.30;;;18.80;99.90;;;19.21;90.54;101392.47;5052413;28;20297;-72
2023/07/06 03:27:56;;;;;;;18.17;6.90;;;18.80;99.90;;;19.21;90.64;101392.47;5053601;28;20056;-71
2023/07/06 03:30:29;;;;;;;22.15;7.78;;;18.80;99.90;;;19.23;90.74;101395.97;5052246;28;20514;-70
2023/07/06 03:32:59;;;;;;;17.38;7.28;;;18.80;99.90;;;19.23;90.72;101393.28;5049501;28;20045;-72
2023/07/06 03:35:29;;;;;;;20.20;7.30;;;18.80;99.90;;;19.22;90.83;101388.88;5065474;28;20095;-71
2023/07/06 03:37:58;;;;;;;23.52;8.20;;;18.80;99.90;;;19.21;90.93;101389.78;5053402;28;20067;-71
2023/07/06 03:40:30;;;;;;;21.35;8.40;;;18.80;99.90;;;19.21;90.96;101389.78;5053215;28;20041;-70
2023/07/06 03:42:59;;;;;;;19.52;8.13;;;18.80;99.90;;;19.22;90.78;101396.91;5053264;28;20136;-70
2023/07/06 03:45:30;;;;;;;25.42;9.35;;;18.80;99.90;;;19.18;90.88;101395.25;5053256;28;20044;-70
2023/07/06 03:47:59;;;;;;;19.50;7.55;;;18.70;99.90;;;19.08;91.19;101378.56;5053246;28;20053;-71
2023/07/06 03:50:28;;;;;;;17.73;7.88;;;18.70;99.90;;;19.17;91.05;101393.47;5052868;28;20509;-71
2023/07/06 03:52:58;;;;;;;21.13;8.02;;;18.70;99.90;;;19.22;90.97;101388.88;5052842;28;20482;-70
2023/07/06 03:55:28;;;;;;;23.70;7.97;;;18.80;99.90;;;19.15;90.86;101389.97;5049008;28;20483;-71
2023/07/06 03:58:00;;;;;;;20.63;7.60;;;18.70;99.90;;;19.14;91.05;101398.94;5068556;28;20052;-69
2023/07/06 04:00:34;;;;;;;21.23;7.63;;;18.70;99.90;;;19.08;91.08;101397.34;5052958;28;20076;-71
2023/07/06 04:03:03;;;;;;;19.27;8.50;;;18.60;99.90;;;19.08;91.10;101399.13;5053012;28;20041;-70
2023/07/06 04:05:36;;;;;;;22.15;8.15;;;18.60;99.90;;;19.02;91.40;101404.69;5049069;28;20518;-69
2023/07/06 04:08:08;;;;;;;20.38;7.38;;;18.60;99.90;;;18.98;91.82;101405.69;5052593;28;20055;-71
2023/07/06 04:10:40;;;;;;;18.13;7.80;;;18.50;99.90;;;19.00;91.65;101402.06;5052950;28;20055;-72
2023/07/06 04:13:09;;;;;;;17.80;7.68;;;18.50;99.90;;;19.00;91.74;101401.16;5052579;28;20091;-70
2023/07/06 04:15:41;;;;;;;25.50;8.10;;;18.50;99.90;;;19.01;91.83;101405.63;5052805;28;20044;-69
2023/07/06 04:18:10;;;;;;;25.45;8.80;;;18.50;99.90;;;18.90;91.82;101380.00;5049154;28;20681;-70
2023/07/06 04:20:39;;;;;;;18.60;8.15;;;18.50;99.90;;;19.02;91.95;101402.91;5052359;28;20041;-71
2023/07/06 04:23:09;;;;;;;17.42;7.45;;;18.50;99.90;;;19.04;91.99;101408.19;5052812;28;20095;-72
2023/07/06 04:25:39;;;;;;;20.23;8.27;;;18.60;99.90;;;19.02;91.98;101410.06;5051552;28;20044;-71
2023/07/06 04:28:10;;;;;;;22.23;8.57;;;18.60;99.90;;;18.98;92.04;101411.94;5050490;28;20443;-72
2023/07/06 04:30:41;;;;;;;18.80;8.23;;;18.50;99.90;;;18.95;92.28;101417.38;5052461;28;20048;-71
2023/07/06 04:33:16;;;;;;;22.30;8.63;;;18.50;99.90;;;18.93;92.16;101405.81;5051335;28;20076;-70
2023/07/06 04:35:45;;;;;;;26.10;10.38;;;18.50;99.90;;;18.92;92.55;101413.03;5049997;28;20131;-69
2023/07/06 04:38:13;;;;;;;17.88;8.43;;;18.50;99.90;;;18.95;92.64;101408.50;5052270;28;20087;-71
2023/07/06 04:40:43;;;;;;;22.05;9.48;;;18.50;99.90;;;18.89;92.73;101415.78;5052504;28;20094;-70
2023/07/06 04:43:13;;;;;;;25.10;9.83;;;18.50;99.90;;;18.82;93.09;101416.00;5052295;28;20102;-70
2023/07/06 04:45:41;;;;;;;22.77;10.27;;;18.40;99.90;;;18.81;93.50;101419.63;5052682;28;20377;-70
2023/07/06 04:48:10;;;;;;;18.58;8.95;;;18.40;99.90;;;18.85;93.55;101426.66;5052205;28;20400;-71
2023/07/06 04:50:40;;;;;;;26.85;10.57;;;18.40;99.90;;;18.87;93.48;101430.19;5052145;28;20106;-72
2023/07/06 04:53:09;;;;;;;25.10;9.63;;;18.40;99.90;;;18.82;93.50;101424.94;5048937;28;20051;-72
2023/07/06 04:55:38;;;;;;;27.35;10.27;;;18.40;99.90;;;18.86;93.68;101431.06;5052350;28;20049;-70
2023/07/06 04:58:07;;;;;;;21.85;10.10;;;18.40;99.90;;;18.88;93.60;101439.97;5052073;28;20445;-71
2023/07/06 05:00:39;;;;;;;24.30;10.17;;;18.40;99.90;;;18.92;93.78;101437.16;5052072;28;20045;-71
2023/07/06 05:03:09;;;;;;;19.42;9.15;;;18.40;99.90;;;18.89;93.91;101439.91;5052160;28;20059;-70
2023/07/06 05:05:40;;;;;;;22.00;9.05;;;18.50;99.90;;;18.97;93.79;101444.19;5052929;28;20049;-70
2023/07/06 05:08:12;;;;;;;20.83;9.88;;;18.50;99.90;;;18.63;93.82;101386.19;5052098;28;20048;-70
2023/07/06 05:10:43;;;;;;;27.65;10.15;;;18.60;99.90;;;18.98;93.86;101440.56;5056394;28;20045;-72
2023/07/06 05:13:13;;;;;;;22.20;9.52;;;18.60;99.90;;;18.96;94.03;101420.97;5055731;28;20056;-71
2023/07/06 05:15:42;;;;;;;27.45;9.80;;;18.70;99.90;;;19.11;94.08;101448.19;5055987;28;20406;-72
2023/07/06 05:18:10;;;;;;;22.95;10.30;;;18.70;99.90;;;18.62;94.01;101348.72;5055949;28;20052;-71
2023/07/06 05:20:40;;;;;;;24.15;10.05;;;18.80;99.90;;;19.23;94.09;101446.94;5055564;28;20140;-72
2023/07/06 05:23:11;;;;;;;25.45;10.13;;;18.80;99.90;;;19.23;94.26;101444.25;5056197;28;20044;-72
2023/07/06 05:25:39;;;;;;;21.38;9.00;;;18.80;99.90;;;19.22;94.32;101453.25;5052248;28;20059;-69
2023/07/06 05:28:10;;;;;;;24.42;9.75;;;18.80;99.90;;;19.27;94.62;101457.53;5055720;28;20048;-71
2023/07/06 05:30:43;;;;;;;21.38;8.43;;;18.80;99.90;;;19.28;94.73;101461.13;5055517;28;20048;-72
2023/07/06 05:33:12;;;;;;;24.35;10.45;;;18.90;99.90;;;19.39;94.66;101467.06;5055675;28;20485;-72
2023/07/06 05:35:42;;;;;;;23.85;9.40;;;19.00;99.90;;;19.34;94.37;101467.19;5055654;28;20060;-71
2023/07/06 05:38:11;;;;;;;23.70;9.82;;;19.00;99.90;;;19.34;94.17;101472.53;5055402;28;20092;-70
2023/07/06 05:40:40;;;;;;;24.23;11.18;;;18.90;99.90;;;19.36;94.24;101461.75;5055351;28;20046;-73
2023/07/06 05:43:09;;;;;;;28.10;11.00;;;19.00;99.90;;;19.43;93.99;101466.03;5051885;28;20037;-73
2023/07/06 05:45:38;;;;;;;25.48;10.73;;;19.00;99.90;;;19.46;94.25;101477.53;5055373;28;20041;-69
2023/07/06 05:48:08;;;;;;;28.95;11.07;;;19.10;99.90;;;19.51;94.63;101464.00;5055334;28;20052;-67
2023/07/06 05:50:36;;;;;;;27.17;10.10;;;19.10;99.90;;;19.55;94.32;101466.50;5055365;28;20061;-69
2023/07/06 05:53:06;;;;;;;26.00;9.98;;;19.20;99.90;;;19.60;94.21;101467.25;5055242;28;20077;-71
2023/07/06 05:55:35;;;;;;;28.10;9.95;;;19.20;99.90;;;19.72;93.72;101474.03;5054948;28;20051;-70
2023/07/06 05:58:05;;;;;;;25.15;9.10;;;19.30;99.90;;;19.76;93.03;101481.06;5055119;28;20072;-72
2023/07/06 06:00:36;;;;;;;22.33;9.55;;;19.40;99.90;;;19.80;92.61;101477.38;5054734;28;20110;-72
2023/07/06 06:03:06;;;;;;;27.55;9.52;;;19.40;99.90;;;19.84;92.24;101488.88;5051472;28;20040;-70
2023/07/06 06:05:35;;;;;;;22.08;8.80;;;19.40;99.90;;;19.94;92.12;101485.81;5053747;28;20490;-71
2023/07/06 06:08:04;;;;;;;22.40;9.57;;;19.50;99.90;;;19.95;91.99;101490.28;5055251;28;20079;-73
2023/07/06 06:10:33;;;;;;;25.63;9.50;;;19.60;99.90;;;20.01;91.69;101494.56;5055016;28;20065;-72
2023/07/06 06:13:01;;;;;;;28.08;8.68;;;19.60;99.90;;;20.06;90.89;101498.84;5054414;28;20055;-73
2023/07/06 06:15:30;;;;;;;19.10;9.50;;;19.70;99.90;;;20.13;90.39;101503.06;5055013;28;20041;-72
2023/07/06 06:17:58;;;;;;;24.23;8.80;;;19.70;99.90;;;20.20;90.15;101507.38;5054148;28;20818;-73
2023/07/06 06:20:28;;;;;;;23.33;8.40;;;19.80;99.90;;;20.22;89.42;101508.19;5054411;28;20037;-72
2023/07/06 06:22:56;;;;;;;20.87;7.90;;;19.80;99.90;;;20.27;89.04;101506.22;5050560;28;20049;-69
2023/07/06 06:25:24;;;;;;;23.30;8.85;;;19.80;99.90;;;20.31;88.47;101517.75;5054315;28;20057;-72
2023/07/06 06:27:53;;;;;;;17.45;8.00;;;19.90;99.90;;;20.25;87.85;101508.09;5054374;28;20048;-73
2023/07/06 06:30:21;;;;;;;18.83;7.90;;;19.90;99.90;;;20.00;87.66;101450.72;5054308;28;20553;-74
2023/07/06 06:32:50;;;;;;;20.63;7.47;;;20.00;99.90;;;20.38;86.77;101520.16;5054232;28;20520;-73
2023/07/06 06:35:23;;;;;;;15.13;6.78;;;20.00;99.90;;;20.04;87.20;101430.88;5054242;28;20048;-74
2023/07/06 06:37:53;;;;;;;24.13;6.47;;;20.10;99.90;;;20.56;86.51;101521.34;5054177;28;20049;-75
2023/07/06 06:40:22;;;;;;;11.20;5.20;;;20.20;99.90;;;20.63;85.44;101525.59;5054112;28;20068;-72
2023/07/06 06:42:51;;;;;;;20.53;7.67;;;20.30;99.90;;;20.69;86.04;101531.59;5050564;28;20556;-73
2023/07/06 06:45:21;;;;;;;18.15;7.35;;;20.30;99.90;;;20.65;85.52;101531.78;5054006;28;20053;-74
2023/07/06 06:47:50;;;;;;;21.77;8.00;;;20.30;99.90;;;20.69;85.91;101525.38;5053961;28;20053;-74
2023/07/06 06:50:20;;;;;;;13.40;6.57;;;20.30;99.90;;;20.60;84.54;101531.94;5053871;28;20052;-73
2023/07/06 06:52:49;;;;;;;17.65;6.85;;;20.20;99.90;;;20.64;83.25;101528.22;5053808;28;20049;-74
2023/07/06 06:55:19;;;;;;;16.48;6.97;;;20.20;99.90;;;20.80;84.21;101522.28;5053777;28;20099;-73
2023/07/06 06:57:48;;;;;;;21.20;8.18;;;20.40;99.90;;;20.79;83.93;101531.31;5053716;28;20056;-73
2023/07/06 07:00:18;;;;;;;18.02;7.70;;;20.40;99.90;;;20.88;83.83;101525.59;5053646;28;20073;-73
2023/07/06 07:02:46;;;;;;;16.17;6.67;;;20.40;99.90;;;21.00;84.21;101536.75;5049881;28;20111;-73
2023/07/06 07:05:16;;;;;;;14.13;6.80;;;20.60;99.90;;;21.04;83.59;101526.81;5053739;28;20049;-73
2023/07/06 07:07:44;;;;;;;13.93;6.53;;;20.60;99.90;;;21.03;82.75;101535.81;5053873;28;20111;-73
2023/07/06 07:10:13;;;;;;;19.00;6.88;;;20.70;99.90;;;21.05;81.99;101532.13;5053940;28;20154;-74
2023/07/06 07:12:44;;;;;;;16.30;5.93;;;20.70;99.90;;;20.98;80.89;101518.94;5053303;28;20092;-73
2023/07/06 07:15:15;;;;;;;16.27;5.97;;;20.70;99.90;;;21.06;80.27;101531.19;5054026;28;20111;-74
2023/07/06 07:17:44;;;;;;;;;;;20.70;99.90;;;21.04;80.90;101540.28;5052863;28;20525;-74
2023/07/06 07:20:14;;;;;;;14.07;6.43;;;20.70;99.90;;;20.99;80.98;101545.78;5049256;28;19921;-73
2023/07/06 07:22:44;;;;;;;16.15;6.32;;;20.60;99.90;;;21.05;80.21;101544.69;5050058;28;20053;-74
2023/07/06 07:25:17;;;;;;;14.05;6.40;;;20.60;99.90;;;21.08;80.35;101558.06;5053243;28;20533;-74
2023/07/06 07:27:47;;;;;;;17.10;7.93;;;20.70;99.90;;;20.93;81.71;101550.50;5053596;28;20049;-73
2023/07/06 07:30:15;;;;;;;20.40;8.35;;;20.50;99.90;;;20.87;82.06;101554.28;5052618;28;20053;-73
2023/07/06 07:32:47;;;;;;;22.20;8.27;;;20.50;99.90;;;20.81;82.33;101559.03;5053162;28;20068;-73
2023/07/06 07:35:16;;;;;;;21.55;7.80;;;20.40;99.90;;;20.75;82.78;101559.22;5053395;28;20041;-72
2023/07/06 07:37:50;;;;;;;23.05;8.63;;;20.30;99.90;;;20.74;82.96;101560.16;5052796;28;20053;-73
2023/07/06 07:40:22;;;;;;;13.77;7.88;;;20.30;99.90;;;20.75;82.73;101556.53;5053311;28;20512;-74
2023/07/06 07:42:53;;;;;;;11.05;6.00;;;20.30;99.90;;;20.69;81.47;101553.13;5052909;28;20041;-73
2023/07/06 07:45:22;;;;;;;;;;;20.30;99.90;;;20.57;79.31;101555.38;5052272;28;20056;-74
2023/07/06 07:47:51;;;;;;;18.67;6.72;;;20.20;99.90;;;20.63;80.31;101556.03;5052726;28;20031;-74
2023/07/06 07:50:20;;;;;;;20.17;7.45;;;20.20;99.90;;;20.57;82.12;101558.06;5052603;28;20056;-74
2023/07/06 07:52:49;;;;;;;15.40;5.80;;;20.20;99.90;;;20.53;81.33;101559.97;5049329;28;20048;-74
2023/07/06 07:55:17;;;;;;;14.65;6.80;;;20.10;99.90;;;20.47;81.14;101557.50;5052662;28;20490;-73
2023/07/06 07:57:45;;;;;;;9.32;5.07;;;20.00;99.90;;;20.46;80.71;101552.19;5053000;28;20091;-73
2023/07/06 08:00:16;;;;;;;8.70;4.78;;;20.10;99.90;;;20.40;79.06;101561.31;5051608;28;20119;-77
2023/07/06 08:02:45;;;;;;;12.50;4.88;;;20.00;99.90;;;20.38;78.38;101557.78;5052659;28;20045;-77
2023/07/06 08:05:16;;;;;;;10.40;5.32;;;20.00;99.90;;;20.42;78.10;101562.13;5052890;28;20048;-80
2023/07/06 08:07:45;;;;;;;7.57;4.47;;;20.00;99.90;;;20.35;76.66;101560.59;5051543;28;20052;-81
2023/07/06 08:10:15;;;;;;;8.77;4.78;;;20.00;99.90;;;20.38;76.72;101563.16;5052515;28;20125;-75
2023/07/06 08:12:44;;;;;;;9.27;4.80;;;20.00;99.90;;;20.46;76.84;101571.84;5039765;28;20049;-72
2023/07/06 08:15:13;;;;;;;8.57;4.43;;;20.10;99.90;;;20.53;76.80;101572.53;5052523;28;20083;-74
2023/07/06 08:17:44;;;;;;;8.33;4.83;;;20.10;99.90;;;20.55;77.15;101566.19;5052566;28;20053;-74
2023/07/06 08:20:13;;;;;;;;;;;20.20;99.90;;;20.51;76.71;101571.72;5052972;28;20116;-74
2023/07/06 08:23:03;;;;;;;8.68;4.22;;;20.20;99.90;;;20.51;76.80;101577.97;5049931;28;20025;-74
2023/07/06 08:25:37;;;;;;;8.55;4.35;;;20.20;99.90;;;20.65;76.65;101581.03;5052715;28;20045;-74
2023/07/06 08:28:07;;;;;;;10.48;5.05;;;20.30;99.90;;;20.09;75.33;101482.63;5052315;28;20065;-73
2023/07/06 08:30:36;;;;;;;8.47;4.83;;;20.30;99.90;;;20.64;73.83;101583.78;5052383;28;20045;-80
2023/07/06 08:33:07;;;;;;;5.85;4.10;;;20.30;99.90;;;20.54;72.96;101583.22;5048840;28;20056;-81
2023/07/06 08:35:35;;;;;;;7.63;4.40;;;20.30;99.90;;;20.54;73.03;101585.91;5052720;28;20148;-73
2023/07/06 08:38:04;;;;;;;9.02;4.50;;;20.20;99.90;;;20.50;72.57;101600.38;5052627;28;20068;-75
2023/07/06 08:40:34;;;;;;;10.27;4.55;;;20.10;99.90;;;20.53;72.87;101588.66;5052944;28;20064;-74
2023/07/06 08:43:08;;;;;;;9.53;4.13;;;20.10;99.90;;;20.49;72.94;101598.66;5056167;28;20049;-77
2023/07/06 08:45:40;;;;;;;10.15;4.47;;;20.10;99.90;;;20.44;71.88;101595.22;5056715;28;20067;-78
2023/07/06 08:48:13;;;;;;;8.18;4.72;;;20.00;99.90;;;20.48;71.63;101599.56;5052734;28;20430;-71
2023/07/06 08:50:48;;;;;;;10.00;4.63;;;20.00;99.90;;;20.61;71.10;101602.72;5056241;28;20048;-74
2023/07/06 08:53:17;;;;;;;9.60;4.60;;;20.20;99.90;;;20.53;70.87;101588.66;5056240;28;20080;-74
2023/07/06 08:55:46;;;;;;;6.65;4.05;;;20.20;99.90;;;20.80;71.48;101616.41;5056235;28;20045;-71
2023/07/06 08:58:22;;;;;;;7.85;4.13;;;20.30;99.90;;;20.98;72.91;101613.94;5055213;28;20045;-73
2023/07/06 09:00:51;;;;;;;6.53;4.20;;;20.50;99.90;;;20.82;71.43;101590.34;5052870;28;20053;-72
2023/07/06 09:03:23;;;;;;;9.70;4.28;;;20.50;99.90;;;21.10;71.20;101620.78;5055916;28;20128;-72
2023/07/06 09:05:53;;;;;;;9.82;5.00;;;20.70;99.90;;;21.21;70.16;101623.94;5055982;28;20129;-77
2023/07/06 09:08:23;;;;;;;6.70;4.63;;;20.80;99.90;;;21.30;70.00;101619.09;5056272;28;20056;-75
2023/07/06 09:10:51;;;;;;;7.22;4.40;;;20.90;99.90;;;21.45;69.03;101623.03;5056312;28;20095;-75
2023/07/06 09:13:25;;;;;;;9.15;4.13;;;21.00;99.90;;;21.50;66.66;101629.16;5055441;28;20525;-74
2023/07/06 09:16:03;;;;;;;5.80;3.65;;;21.10;99.90;;;21.40;64.01;101625.03;5052502;28;20420;-71
2023/07/06 09:18:33;;;;;;;4.53;3.60;;;21.10;99.90;;;21.41;62.39;101624.09;5055587;28;20037;-62
2023/07/06 09:21:02;;;;;;;7.45;3.38;;;21.00;99.90;;;21.42;61.70;101632.13;5054184;28;20071;-62
2023/07/06 09:23:32;;;;;;;6.20;3.88;;;21.00;99.90;;;21.67;61.09;101632.06;5055405;28;20045;-67
2023/07/06 09:26:07;;;;;;;7.78;3.65;;;21.20;99.90;;;21.71;59.16;101633.72;5051599;28;20486;-61
2023/07/06 09:28:44;;;;;;;7.38;3.58;;;21.30;99.90;;;21.49;58.26;101635.44;5055729;28;20049;-63
2023/07/06 09:31:19;;;;;;;6.75;3.63;;;21.20;99.90;;;21.56;60.44;101637.00;5055843;28;20099;-63
2023/07/06 09:33:53;;;;;;;4.60;3.40;;;21.20;99.90;;;21.39;58.76;101642.09;5051587;28;20481;-62
2023/07/06 09:36:25;;;;;;;5.22;3.30;;;21.00;99.90;;;21.37;58.62;101642.16;5055154;28;20120;-62
2023/07/06 09:38:54;;;;;;;4.82;3.30;;;21.00;99.90;;;21.01;57.09;101569.97;5055199;28;20052;-63
2023/07/06 09:41:25;;;;;;;4.57;3.50;;;21.00;99.90;;;21.41;55.65;101634.84;5054127;28;20104;-65
2023/07/06 09:43:58;;;;;;;6.53;3.17;;;21.00;99.90;;;21.58;55.17;101643.22;5055106;28;20052;-60
2023/07/06 09:46:33;;;;;;;8.77;3.03;;;21.10;99.90;;;21.58;53.38;101646.75;5051426;28;20053;-60
2023/07/06 09:49:03;;;;;;;5.22;3.33;;;21.20;99.90;;;21.68;53.32;101649.97;5055085;28;20545;-61
2023/07/06 09:51:37;;;;;;;7.10;3.17;;;21.30;99.90;;;21.75;52.20;101643.44;5055000;28;20041;-67
2023/07/06 09:54:15;;;;;;;4.82;2.92;;;21.40;99.90;;;21.83;52.51;101649.47;5054938;28;20077;-61
2023/07/06 09:56:43;;;;;;;3.72;2.47;;;21.40;99.90;;;21.98;50.92;101661.44;5052385;28;20080;-62
2023/07/06 09:59:12;;;;;;;5.30;3.58;;;21.60;99.90;;;22.17;51.75;101654.38;5051903;28;20049;-62
2023/07/06 10:01:53;;;;;;;5.07;3.20;;;21.80;99.90;;;22.08;49.95;101646.69;5055058;28;20087;-61
2023/07/06 10:04:48;;;;;;;3.20;2.88;;;21.80;99.90;;;22.09;49.20;101659.19;5050850;28;20040;-61
2023/07/06 10:07:24;;;;;;;3.60;2.83;;;21.70;99.90;;;22.25;51.51;101658.56;5050865;28;20048;-61
2023/07/06 10:10:02;;;;;;;3.20;2.35;;;21.80;99.90;;;22.34;50.57;101660.88;5052208;28;20069;-61
2023/07/06 10:12:38;;;;;;;5.10;3.00;;;21.90;99.90;;;22.40;49.67;101667.81;5054841;28;20098;-61
2023/07/06 10:15:17;;;;;;;3.75;2.80;;;22.00;99.90;;;22.59;49.93;101668.00;5050868;28;20498;-62
2023/07/06 10:17:51;;;;;;;5.00;2.92;;;22.20;99.90;;;22.70;49.59;101672.03;5054485;28;20080;-60
2023/07/06 10:20:27;;;;;;;4.80;2.83;;;22.30;99.90;;;22.70;48.69;101660.34;5054386;28;20048;-60
2023/07/06 10:23:14;;;;;;;3.38;2.90;;;22.30;99.90;;;22.58;48.52;101660.84;5051210;28;20045;-61
2023/07/06 10:25:56;;;;;;;5.95;3.00;;;22.30;99.90;;;22.86;48.12;101672.25;5053230;28;20076;-63